Rhourd El Adra — 7TBS — position and weather

sailwx.info

Track history (hours):
 
Tides and Currents Weather Stations Pressure Air Temp Water Temp Dewpoint Dewpoint Depression Visibility Wind Speed Wind Dir Waves Ship Positions

Rhourd El Adra

Last reported at 2017-Oct-14 07:29 UTC. Time now 2017-Oct-19 12:43 UTC.
Position N 36°41' W 000°02'.

Length 156 m; draft 6.6 m.

Type: Ship (hazmat cat C). MMSI: 605026210.

Date/timePositionNaut miles runAvg speedWind from/ knotsBaromVisibWave heightAir tempDewpointWater temp
2017-Oct-14 07:29N 36°41' W 000°02'816.3
2017-Oct-14 07:01N 36°49' E 000°00'816.6
2017-Oct-14 06:30N 36°57' E 000°03'1216.6
2017-Oct-14 05:47N 37°09' E 000°06'516.1
2017-Oct-14 05:30N 37°13' E 000°07'816.0
2017-Oct-14 05:00N 37°21' E 000°10'816.0
2017-Oct-14 04:31N 37°29' E 000°12'816.0
2017-Oct-14 04:00N 37°36' E 000°14'816.0
2017-Oct-14 03:29N 37°45' E 000°16'816.3
2017-Oct-14 03:00N 37°52' E 000°18'816.1
2017-Oct-14 02:30N 38°00' E 000°21'816.3
2017-Oct-14 02:00N 38°08' E 000°23'816.4
2017-Oct-14 01:30N 38°16' E 000°25'916.5
2017-Oct-14 00:59N 38°25' E 000°27'1516.5
2017-Oct-14 00:04N 38°39' E 000°31'116.2
2017-Oct-14 00:00N 38°40' E 000°32'  
2017-Oct-11 00:00N 37°33' E 000°14'816.2
2017-Oct-10 23:31N 37°25' E 000°12'816.2
2017-Oct-10 22:59N 37°17' E 000°10'816.2
2017-Oct-10 22:28N 37°08' E 000°07'1515.9
2017-Oct-10 21:32N 36°54' E 000°03'215.8
2017-Oct-10 21:26N 36°52' E 000°03'715.7
2017-Oct-10 20:59N 36°46' E 000°01'  
2017-Oct-06 22:28N 35°51' W 000°15'0 0.1
2017-Oct-06 21:11N 35°51' W 000°15'0 0.0
2017-Oct-06 14:23N 35°51' W 000°15'0 0.0
2017-Oct-06 02:59N 35°51' W 000°15'0 0.0
2017-Oct-06 02:17N 35°51' W 000°15'0 0.0
2017-Oct-06 01:59N 35°51' W 000°15'0 0.0
2017-Oct-06 01:23N 35°51' W 000°15'0 0.0
2017-Oct-06 00:59N 35°51' W 000°15'0 0.0
2017-Oct-05 20:11N 35°51' W 000°15'0 0.1
2017-Oct-05 19:59N 35°51' W 000°15'  
Track history (hours):
 
Tides and Currents Weather Stations Pressure Air Temp Water Temp Dewpoint Dewpoint Depression Visibility Wind Speed Wind Dir Waves Ship Positions

Rhourd El Adra

Last reported at 2017-Oct-14 07:29 UTC. Time now 2017-Oct-19 12:43 UTC.
Position N 36°41' W 000°02'.

Length 156 m; draft 6.6 m.

Type: Ship (hazmat cat C). MMSI: 605026210.

Date/timePositionNaut miles runAvg speedWind from/ knotsBaromVisibWave heightAir tempDewpointWater temp
2017-Oct-14 07:29N 36°41' W 000°02'816.3
2017-Oct-14 07:01N 36°49' E 000°00'816.6
2017-Oct-14 06:30N 36°57' E 000°03'1216.6
2017-Oct-14 05:47N 37°09' E 000°06'516.1
2017-Oct-14 05:30N 37°13' E 000°07'816.0
2017-Oct-14 05:00N 37°21' E 000°10'816.0
2017-Oct-14 04:31N 37°29' E 000°12'816.0
2017-Oct-14 04:00N 37°36' E 000°14'816.0
2017-Oct-14 03:29N 37°45' E 000°16'816.3
2017-Oct-14 03:00N 37°52' E 000°18'816.1
2017-Oct-14 02:30N 38°00' E 000°21'816.3
2017-Oct-14 02:00N 38°08' E 000°23'816.4
2017-Oct-14 01:30N 38°16' E 000°25'916.5
2017-Oct-14 00:59N 38°25' E 000°27'1516.5
2017-Oct-14 00:04N 38°39' E 000°31'116.2
2017-Oct-14 00:00N 38°40' E 000°32'  
2017-Oct-11 00:00N 37°33' E 000°14'816.2
2017-Oct-10 23:31N 37°25' E 000°12'816.2
2017-Oct-10 22:59N 37°17' E 000°10'816.2
2017-Oct-10 22:28N 37°08' E 000°07'1515.9
2017-Oct-10 21:32N 36°54' E 000°03'215.8
2017-Oct-10 21:26N 36°52' E 000°03'715.7
2017-Oct-10 20:59N 36°46' E 000°01'  
2017-Oct-06 22:28N 35°51' W 000°15'0 0.1
2017-Oct-06 21:11N 35°51' W 000°15'0 0.0
2017-Oct-06 14:23N 35°51' W 000°15'0 0.0
2017-Oct-06 02:59N 35°51' W 000°15'0 0.0
2017-Oct-06 02:17N 35°51' W 000°15'0 0.0
2017-Oct-06 01:59N 35°51' W 000°15'0 0.0
2017-Oct-06 01:23N 35°51' W 000°15'0 0.0
2017-Oct-06 00:59N 35°51' W 000°15'0 0.0
2017-Oct-05 20:11N 35°51' W 000°15'0 0.1
2017-Oct-05 19:59N 35°51' W 000°15'  

Dump ship's entire track history